sensor_id;sensor_type;location;lat;lon;timestamp;temperature;humidity
20315;DHT22;10315;50.958;13.080;2022-10-28T00:07:30;14.10;99.90
20315;DHT22;10315;50.958;13.080;2022-10-28T00:17:32;14.60;99.90
20315;DHT22;10315;50.958;13.080;2022-10-28T00:27:35;14.50;99.90
20315;DHT22;10315;50.958;13.080;2022-10-28T00:37:36;14.40;99.90
20315;DHT22;10315;50.958;13.080;2022-10-28T00:47:43;14.40;99.90
20315;DHT22;10315;50.958;13.080;2022-10-28T00:57:52;14.40;99.90
20315;DHT22;10315;50.958;13.080;2022-10-28T01:08:00;14.60;99.90
20315;DHT22;10315;50.958;13.080;2022-10-28T01:18:08;14.70;99.90
20315;DHT22;10315;50.958;13.080;2022-10-28T01:28:26;14.80;99.90
20315;DHT22;10315;50.958;13.080;2022-10-28T01:38:34;15.00;99.90
20315;DHT22;10315;50.958;13.080;2022-10-28T01:48:43;14.90;99.90
20315;DHT22;10315;50.958;13.080;2022-10-28T01:58:47;14.80;99.90
20315;DHT22;10315;50.958;13.080;2022-10-28T02:08:58;14.90;99.90
20315;DHT22;10315;50.958;13.080;2022-10-28T02:19:10;14.90;99.90
20315;DHT22;10315;50.958;13.080;2022-10-28T02:29:18;15.00;99.90
20315;DHT22;10315;50.958;13.080;2022-10-28T02:39:25;15.10;99.90
20315;DHT22;10315;50.958;13.080;2022-10-28T02:49:29;15.00;99.90
20315;DHT22;10315;50.958;13.080;2022-10-28T02:59:33;15.00;99.90
20315;DHT22;10315;50.958;13.080;2022-10-28T03:09:35;15.10;99.90
20315;DHT22;10315;50.958;13.080;2022-10-28T03:19:38;15.30;99.90
20315;DHT22;10315;50.958;13.080;2022-10-28T03:29:40;15.40;99.90
20315;DHT22;10315;50.958;13.080;2022-10-28T03:39:58;15.60;99.90
20315;DHT22;10315;50.958;13.080;2022-10-28T03:50:02;15.60;99.90
20315;DHT22;10315;50.958;13.080;2022-10-28T04:00:06;15.60;99.90
20315;DHT22;10315;50.958;13.080;2022-10-28T04:10:08;15.50;99.90
20315;DHT22;10315;50.958;13.080;2022-10-28T04:20:12;15.40;99.90
20315;DHT22;10315;50.958;13.080;2022-10-28T04:30:14;15.10;99.90
20315;DHT22;10315;50.958;13.080;2022-10-28T04:40:17;15.10;99.90
20315;DHT22;10315;50.958;13.080;2022-10-28T04:50:19;15.30;99.90
20315;DHT22;10315;50.958;13.080;2022-10-28T05:00:22;15.20;99.90
20315;DHT22;10315;50.958;13.080;2022-10-28T05:10:24;15.10;99.90
20315;DHT22;10315;50.958;13.080;2022-10-28T05:20:27;15.10;99.90
20315;DHT22;10315;50.958;13.080;2022-10-28T05:30:29;15.20;99.90
20315;DHT22;10315;50.958;13.080;2022-10-28T05:40:32;15.40;99.90
20315;DHT22;10315;50.958;13.080;2022-10-28T05:50:34;15.30;99.90
20315;DHT22;10315;50.958;13.080;2022-10-28T06:00:37;15.20;99.90
20315;DHT22;10315;50.958;13.080;2022-10-28T06:10:39;15.10;99.90
20315;DHT22;10315;50.958;13.080;2022-10-28T06:20:42;15.20;99.90
20315;DHT22;10315;50.958;13.080;2022-10-28T06:30:44;15.30;99.90
20315;DHT22;10315;50.958;13.080;2022-10-28T06:40:47;15.50;99.90
20315;DHT22;10315;50.958;13.080;2022-10-28T06:50:49;15.80;99.90
20315;DHT22;10315;50.958;13.080;2022-10-28T07:00:52;16.00;99.90
20315;DHT22;10315;50.958;13.080;2022-10-28T07:10:54;16.30;99.90
20315;DHT22;10315;50.958;13.080;2022-10-28T07:20:59;17.00;99.90
20315;DHT22;10315;50.958;13.080;2022-10-28T07:31:01;18.60;99.90
20315;DHT22;10315;50.958;13.080;2022-10-28T07:41:06;20.10;99.90
20315;DHT22;10315;50.958;13.080;2022-10-28T07:51:10;19.70;99.90
20315;DHT22;10315;50.958;13.080;2022-10-28T08:01:15;22.50;99.90
20315;DHT22;10315;50.958;13.080;2022-10-28T08:11:18;24.30;99.90
20315;DHT22;10315;50.958;13.080;2022-10-28T08:21:23;21.20;99.90
20315;DHT22;10315;50.958;13.080;2022-10-28T08:31:26;22.00;99.90
20315;DHT22;10315;50.958;13.080;2022-10-28T08:41:34;22.50;99.90
20315;DHT22;10315;50.958;13.080;2022-10-28T08:51:42;23.30;99.90
20315;DHT22;10315;50.958;13.080;2022-10-28T09:01:50;23.10;99.90
20315;DHT22;10315;50.958;13.080;2022-10-28T09:12:07;22.70;99.90
20315;DHT22;10315;50.958;13.080;2022-10-28T09:22:21;21.40;99.90
20315;DHT22;10315;50.958;13.080;2022-10-28T09:32:28;21.60;99.90
20315;DHT22;10315;50.958;13.080;2022-10-28T09:42:40;21.50;99.90
20315;DHT22;10315;50.958;13.080;2022-10-28T09:52:51;21.60;99.90
20315;DHT22;10315;50.958;13.080;2022-10-28T10:02:57;21.80;99.90
20315;DHT22;10315;50.958;13.080;2022-10-28T10:13:01;22.50;99.90
20315;DHT22;10315;50.958;13.080;2022-10-28T10:23:21;22.30;99.90
20315;DHT22;10315;50.958;13.080;2022-10-28T10:33:33;21.80;99.90
20315;DHT22;10315;50.958;13.080;2022-10-28T10:43:36;22.60;99.90
20315;DHT22;10315;50.958;13.080;2022-10-28T10:53:39;23.20;99.90
20315;DHT22;10315;50.958;13.080;2022-10-28T11:03:48;23.60;99.90
20315;DHT22;10315;50.958;13.080;2022-10-28T11:14:02;23.60;99.90
20315;DHT22;10315;50.958;13.080;2022-10-28T11:24:16;24.70;99.90
20315;DHT22;10315;50.958;13.080;2022-10-28T11:34:34;24.70;99.90
20315;DHT22;10315;50.958;13.080;2022-10-28T11:44:44;24.40;99.90
20315;DHT22;10315;50.958;13.080;2022-10-28T11:55:01;24.30;99.90
20315;DHT22;10315;50.958;13.080;2022-10-28T12:05:14;24.50;99.90
20315;DHT22;10315;50.958;13.080;2022-10-28T12:15:24;25.60;99.90
20315;DHT22;10315;50.958;13.080;2022-10-28T12:25:31;25.70;99.90
20315;DHT22;10315;50.958;13.080;2022-10-28T12:35:36;26.00;99.90
20315;DHT22;10315;50.958;13.080;2022-10-28T12:45:41;26.10;99.90
20315;DHT22;10315;50.958;13.080;2022-10-28T12:55:47;26.20;99.90
20315;DHT22;10315;50.958;13.080;2022-10-28T13:06:02;25.60;99.90
20315;DHT22;10315;50.958;13.080;2022-10-28T13:16:24;26.70;99.90
20315;DHT22;10315;50.958;13.080;2022-10-28T13:26:33;26.50;99.90
20315;DHT22;10315;50.958;13.080;2022-10-28T13:36:37;25.60;99.90
20315;DHT22;10315;50.958;13.080;2022-10-28T13:47:04;24.70;99.90
20315;DHT22;10315;50.958;13.080;2022-10-28T13:57:25;24.50;99.90
20315;DHT22;10315;50.958;13.080;2022-10-28T14:07:30;24.00;99.90
20315;DHT22;10315;50.958;13.080;2022-10-28T14:17:38;23.60;99.90
20315;DHT22;10315;50.958;13.080;2022-10-28T14:27:42;23.40;99.90
20315;DHT22;10315;50.958;13.080;2022-10-28T14:38:07;23.10;99.90
20315;DHT22;10315;50.958;13.080;2022-10-28T14:48:25;22.80;99.90
20315;DHT22;10315;50.958;13.080;2022-10-28T14:58:31;22.60;99.90
20315;DHT22;10315;50.958;13.080;2022-10-28T15:08:38;22.30;99.90
20315;DHT22;10315;50.958;13.080;2022-10-28T15:18:45;21.80;99.90
20315;DHT22;10315;50.958;13.080;2022-10-28T15:28:48;21.40;99.90
20315;DHT22;10315;50.958;13.080;2022-10-28T15:38:50;21.20;99.90
20315;DHT22;10315;50.958;13.080;2022-10-28T15:48:56;21.00;99.90
20315;DHT22;10315;50.958;13.080;2022-10-28T15:59:05;20.90;99.90
20315;DHT22;10315;50.958;13.080;2022-10-28T16:09:17;20.80;99.90
20315;DHT22;10315;50.958;13.080;2022-10-28T16:19:25;20.60;99.90
20315;DHT22;10315;50.958;13.080;2022-10-28T16:29:29;20.40;99.90
20315;DHT22;10315;50.958;13.080;2022-10-28T16:39:31;20.20;99.90
20315;DHT22;10315;50.958;13.080;2022-10-28T16:49:34;20.40;99.90
20315;DHT22;10315;50.958;13.080;2022-10-28T16:59:38;20.10;99.90
20315;DHT22;10315;50.958;13.080;2022-10-28T17:09:42;19.80;99.90
20315;DHT22;10315;50.958;13.080;2022-10-28T17:19:43;19.60;99.90
20315;DHT22;10315;50.958;13.080;2022-10-28T17:29:47;19.30;99.90
20315;DHT22;10315;50.958;13.080;2022-10-28T17:39:49;19.10;99.90
20315;DHT22;10315;50.958;13.080;2022-10-28T17:49:53;19.00;99.90
20315;DHT22;10315;50.958;13.080;2022-10-28T17:59:54;19.00;99.90
20315;DHT22;10315;50.958;13.080;2022-10-28T18:09:57;19.00;99.90
20315;DHT22;10315;50.958;13.080;2022-10-28T18:19:59;19.20;99.90
20315;DHT22;10315;50.958;13.080;2022-10-28T18:30:03;19.20;99.90
20315;DHT22;10315;50.958;13.080;2022-10-28T18:40:06;18.90;99.90
20315;DHT22;10315;50.958;13.080;2022-10-28T18:50:09;18.60;99.90
20315;DHT22;10315;50.958;13.080;2022-10-28T19:00:12;18.40;99.90
20315;DHT22;10315;50.958;13.080;2022-10-28T19:10:15;18.40;99.90
20315;DHT22;10315;50.958;13.080;2022-10-28T19:20:17;18.20;99.90
20315;DHT22;10315;50.958;13.080;2022-10-28T19:30:20;18.20;99.90
20315;DHT22;10315;50.958;13.080;2022-10-28T19:40:29;18.10;99.90
20315;DHT22;10315;50.958;13.080;2022-10-28T19:50:32;18.00;99.90
20315;DHT22;10315;50.958;13.080;2022-10-28T20:00:34;18.00;99.90
20315;DHT22;10315;50.958;13.080;2022-10-28T20:10:37;18.10;99.90
20315;DHT22;10315;50.958;13.080;2022-10-28T20:20:39;17.90;99.90
20315;DHT22;10315;50.958;13.080;2022-10-28T20:30:42;17.70;99.90
20315;DHT22;10315;50.958;13.080;2022-10-28T20:40:47;17.90;99.90
20315;DHT22;10315;50.958;13.080;2022-10-28T20:50:52;17.90;99.90
20315;DHT22;10315;50.958;13.080;2022-10-28T21:00:59;17.70;99.90
20315;DHT22;10315;50.958;13.080;2022-10-28T21:11:03;17.60;99.90
20315;DHT22;10315;50.958;13.080;2022-10-28T21:21:05;17.50;99.90
20315;DHT22;10315;50.958;13.080;2022-10-28T21:31:10;17.30;99.90
20315;DHT22;10315;50.958;13.080;2022-10-28T21:41:14;17.10;99.90
20315;DHT22;10315;50.958;13.080;2022-10-28T21:51:17;17.10;99.90
20315;DHT22;10315;50.958;13.080;2022-10-28T22:01:21;16.90;99.90
20315;DHT22;10315;50.958;13.080;2022-10-28T22:11:24;16.80;99.90
20315;DHT22;10315;50.958;13.080;2022-10-28T22:21:28;16.90;99.90
20315;DHT22;10315;50.958;13.080;2022-10-28T22:31:32;16.80;99.90
20315;DHT22;10315;50.958;13.080;2022-10-28T22:41:33;16.80;99.90
20315;DHT22;10315;50.958;13.080;2022-10-28T22:51:36;16.60;99.90
20315;DHT22;10315;50.958;13.080;2022-10-28T23:01:38;16.70;99.90
20315;DHT22;10315;50.958;13.080;2022-10-28T23:11:41;16.90;99.90
20315;DHT22;10315;50.958;13.080;2022-10-28T23:21:43;17.10;99.90
20315;DHT22;10315;50.958;13.080;2022-10-28T23:31:46;17.20;99.90
20315;DHT22;10315;50.958;13.080;2022-10-28T23:41:48;17.20;99.90
20315;DHT22;10315;50.958;13.080;2022-10-28T23:51:51;17.10;99.90
